North Hibbing, Minnesota
Current Conditions -  °F | °C
As of 10:53 PM on Monday 20 Oct 2014 (Local Time) from KHIB Reporting Station
Overcast Overcast  
Wind Chill: 45°   Ceiling: 2400
Heat Index: 45°   Visibility: 10mi
Dew Point: 35°   Wind: 3mph
Humidity: 68%   Direction: 70°ENE
Pressure: 30.11"   Gusts: NA
Location:  47.4158°N, 93.0053°W
Report Text: KHIB 210353Z AUTO 07003KT 10SM OVC024 07/02 A3011 RMK AO2 SLP208 T00720017
Loading
Personal Weather Stations






























Interactive Weather Map
Tropical Storm Tracking
New forecast layout! Learn more

10-Day Weather Forecast

Advertisements
Track Severe Weather on mobile